Coden, Alabama
Current Conditions -  °F | °C
As of 9:53 AM on Wednesday 22 Oct 2014 (Local Time) from KPQL Reporting Station
Clear Clear  
Wind Chill: 69°   Ceiling: Unl
Heat Index: 69°   Visibility: 10mi
Dew Point: 54°   Wind: 8mph
Humidity: 58%   Direction: 50°NE
Pressure: 30.1"   Gusts: NA
Location:  30.38°N, 88.24°W
Report Text: KPQL 221453Z 05007KT 10SM CLR 21/12 A3010 RMK AO2 SLP193 T02060122 51013
Loading
Personal Weather Stations






























Interactive Weather Map
Tropical Storm Tracking
New forecast layout! Learn more

10-Day Weather Forecast

Advertisements
Track Severe Weather on mobile